sensor_id;sensor_type;location;lat;lon;timestamp;pressure;altitude;pressure_sealevel;temperature;humidity
40708;BME280;26392;42.696;23.350;2022-07-29T00:00:59;95439.72;;;20.32;86.10
40708;BME280;26392;42.696;23.350;2022-07-29T00:03:26;95441.22;;;20.38;86.51
40708;BME280;26392;42.696;23.350;2022-07-29T00:05:51;95450.66;;;20.37;86.39
40708;BME280;26392;42.696;23.350;2022-07-29T00:08:18;95461.72;;;20.37;86.82
40708;BME280;26392;42.696;23.350;2022-07-29T00:10:44;95470.03;;;20.37;85.22
40708;BME280;26392;42.696;23.350;2022-07-29T00:13:09;95467.19;;;20.28;85.54
40708;BME280;26392;42.696;23.350;2022-07-29T00:15:35;95470.59;;;20.25;85.42
40708;BME280;26392;42.696;23.350;2022-07-29T00:18:00;95465.69;;;20.22;85.93
40708;BME280;26392;42.696;23.350;2022-07-29T00:20:26;95468.31;;;20.27;85.84
40708;BME280;26392;42.696;23.350;2022-07-29T00:22:52;95464.72;;;20.27;85.44
40708;BME280;26392;42.696;23.350;2022-07-29T00:25:18;95471.97;;;20.14;86.39
40708;BME280;26392;42.696;23.350;2022-07-29T00:27:43;95475.38;;;19.97;86.94
40708;BME280;26392;42.696;23.350;2022-07-29T00:30:11;95468.59;;;20.03;87.16
40708;BME280;26392;42.696;23.350;2022-07-29T00:32:36;95459.56;;;20.11;87.06
40708;BME280;26392;42.696;23.350;2022-07-29T00:35:02;95461.53;;;20.11;87.04
40708;BME280;26392;42.696;23.350;2022-07-29T00:37:45;95459.34;;;20.08;88.01
40708;BME280;26392;42.696;23.350;2022-07-29T00:40:11;95467.38;;;19.96;88.18
40708;BME280;26392;42.696;23.350;2022-07-29T00:42:47;95469.66;;;19.80;89.10
40708;BME280;26392;42.696;23.350;2022-07-29T00:45:13;95468.16;;;19.74;89.38
40708;BME280;26392;42.696;23.350;2022-07-29T00:47:39;95465.59;;;19.63;90.27
40708;BME280;26392;42.696;23.350;2022-07-29T00:50:06;95470.59;;;19.61;90.46
40708;BME280;26392;42.696;23.350;2022-07-29T00:52:33;95477.47;;;19.64;91.13
40708;BME280;26392;42.696;23.350;2022-07-29T00:55:00;95475.81;;;19.63;91.64
40708;BME280;26392;42.696;23.350;2022-07-29T00:57:25;95479.69;;;19.62;92.23
40708;BME280;26392;42.696;23.350;2022-07-29T00:59:51;95489.53;;;19.54;93.15
40708;BME280;26392;42.696;23.350;2022-07-29T01:02:16;95484.94;;;19.50;93.94
40708;BME280;26392;42.696;23.350;2022-07-29T01:04:42;95473.28;;;19.39;94.78
40708;BME280;26392;42.696;23.350;2022-07-29T01:07:07;95477.03;;;19.29;96.01
40708;BME280;26392;42.696;23.350;2022-07-29T01:09:34;95475.00;;;19.21;96.22
40708;BME280;26392;42.696;23.350;2022-07-29T01:12:00;95462.31;;;19.06;97.45
40708;BME280;26392;42.696;23.350;2022-07-29T01:14:27;95468.63;;;18.93;98.06
40708;BME280;26392;42.696;23.350;2022-07-29T01:17:04;95465.78;;;18.98;98.35
40708;BME280;26392;42.696;23.350;2022-07-29T01:19:50;95456.38;;;18.99;98.65
40708;BME280;26392;42.696;23.350;2022-07-29T01:30:30;95453.47;;;18.90;98.44
40708;BME280;26392;42.696;23.350;2022-07-29T01:33:00;95457.50;;;18.98;98.27
40708;BME280;26392;42.696;23.350;2022-07-29T01:35:33;95458.00;;;19.00;98.36
40708;BME280;26392;42.696;23.350;2022-07-29T01:38:04;95451.16;;;18.97;97.79
40708;BME280;26392;42.696;23.350;2022-07-29T01:40:46;95441.63;;;18.90;97.88
40708;BME280;26392;42.696;23.350;2022-07-29T01:43:17;95437.41;;;18.78;98.38
40708;BME280;26392;42.696;23.350;2022-07-29T01:45:48;95443.19;;;18.82;99.04
40708;BME280;26392;42.696;23.350;2022-07-29T01:48:21;95450.84;;;18.85;99.63
40708;BME280;26392;42.696;23.350;2022-07-29T01:50:52;95449.81;;;18.81;99.78
40708;BME280;26392;42.696;23.350;2022-07-29T01:53:44;95446.44;;;18.84;99.75
40708;BME280;26392;42.696;23.350;2022-07-29T01:56:12;95443.91;;;18.88;99.66
40708;BME280;26392;42.696;23.350;2022-07-29T01:58:40;95440.41;;;18.96;99.56
40708;BME280;26392;42.696;23.350;2022-07-29T02:01:08;95446.13;;;18.86;99.92
40708;BME280;26392;42.696;23.350;2022-07-29T02:03:35;95434.91;;;18.82;100.00
40708;BME280;26392;42.696;23.350;2022-07-29T02:06:03;95430.69;;;18.85;100.00
40708;BME280;26392;42.696;23.350;2022-07-29T02:08:31;95428.44;;;18.87;99.84
40708;BME280;26392;42.696;23.350;2022-07-29T02:10:59;95424.25;;;18.89;99.63
40708;BME280;26392;42.696;23.350;2022-07-29T02:13:28;95428.47;;;19.00;99.44
40708;BME280;26392;42.696;23.350;2022-07-29T02:15:55;95428.56;;;19.09;99.00
40708;BME280;26392;42.696;23.350;2022-07-29T02:18:23;95431.75;;;19.03;98.99
40708;BME280;26392;42.696;23.350;2022-07-29T02:20:52;95432.97;;;19.10;98.59
40708;BME280;26392;42.696;23.350;2022-07-29T02:23:22;95438.19;;;19.12;98.61
40708;BME280;26392;42.696;23.350;2022-07-29T02:25:49;95437.38;;;19.11;98.17
40708;BME280;26392;42.696;23.350;2022-07-29T02:28:17;95434.50;;;19.03;98.32
40708;BME280;26392;42.696;23.350;2022-07-29T02:30:44;95437.78;;;19.05;98.43
40708;BME280;26392;42.696;23.350;2022-07-29T02:33:13;95429.38;;;19.10;98.49
40708;BME280;26392;42.696;23.350;2022-07-29T02:35:40;95415.69;;;19.05;98.43
40708;BME280;26392;42.696;23.350;2022-07-29T02:38:09;95416.28;;;19.01;98.99
40708;BME280;26392;42.696;23.350;2022-07-29T02:40:57;95407.50;;;19.13;98.62
40708;BME280;26392;42.696;23.350;2022-07-29T02:43:24;95405.22;;;19.15;98.66
40708;BME280;26392;42.696;23.350;2022-07-29T02:45:52;95401.47;;;19.11;98.87
40708;BME280;26392;42.696;23.350;2022-07-29T02:48:22;95407.09;;;19.06;99.17
40708;BME280;26392;42.696;23.350;2022-07-29T02:51:01;95414.84;;;19.04;99.46
40708;BME280;26392;42.696;23.350;2022-07-29T02:53:33;95417.41;;;19.00;100.00
40708;BME280;26392;42.696;23.350;2022-07-29T02:56:05;95426.69;;;18.77;100.00
40708;BME280;26392;42.696;23.350;2022-07-29T02:58:34;95428.59;;;18.63;100.00
40708;BME280;26392;42.696;23.350;2022-07-29T03:01:08;95413.63;;;18.50;100.00
40708;BME280;26392;42.696;23.350;2022-07-29T03:03:37;95420.03;;;18.45;100.00
40708;BME280;26392;42.696;23.350;2022-07-29T03:06:04;95412.28;;;18.47;100.00
40708;BME280;26392;42.696;23.350;2022-07-29T03:08:31;95408.63;;;18.52;100.00
40708;BME280;26392;42.696;23.350;2022-07-29T03:10:57;95413.94;;;18.62;100.00
40708;BME280;26392;42.696;23.350;2022-07-29T03:13:24;95413.66;;;18.64;100.00
40708;BME280;26392;42.696;23.350;2022-07-29T03:15:51;95411.63;;;18.69;100.00
40708;BME280;26392;42.696;23.350;2022-07-29T03:18:17;95420.44;;;18.71;100.00
40708;BME280;26392;42.696;23.350;2022-07-29T03:20:43;95419.03;;;18.74;100.00
40708;BME280;26392;42.696;23.350;2022-07-29T03:23:09;95414.00;;;18.76;100.00
40708;BME280;26392;42.696;23.350;2022-07-29T03:25:34;95411.25;;;18.76;100.00
40708;BME280;26392;42.696;23.350;2022-07-29T03:28:00;95415.66;;;18.77;100.00
40708;BME280;26392;42.696;23.350;2022-07-29T03:30:25;95416.16;;;18.79;100.00
40708;BME280;26392;42.696;23.350;2022-07-29T03:32:51;95408.91;;;18.83;100.00
40708;BME280;26392;42.696;23.350;2022-07-29T03:35:17;95415.16;;;18.89;99.85
40708;BME280;26392;42.696;23.350;2022-07-29T03:37:43;95419.78;;;18.93;99.66
40708;BME280;26392;42.696;23.350;2022-07-29T03:40:12;95417.50;;;18.95;99.92
40708;BME280;26392;42.696;23.350;2022-07-29T03:42:39;95414.97;;;18.99;99.52
40708;BME280;26392;42.696;23.350;2022-07-29T03:45:09;95422.50;;;19.07;99.17
40708;BME280;26392;42.696;23.350;2022-07-29T03:47:39;95427.03;;;19.17;99.21
40708;BME280;26392;42.696;23.350;2022-07-29T03:50:06;95418.66;;;19.22;98.95
40708;BME280;26392;42.696;23.350;2022-07-29T03:52:34;95426.72;;;19.32;98.19
40708;BME280;26392;42.696;23.350;2022-07-29T03:55:01;95424.88;;;19.41;97.48
40708;BME280;26392;42.696;23.350;2022-07-29T03:57:27;95430.69;;;19.54;96.33
40708;BME280;26392;42.696;23.350;2022-07-29T03:59:53;95425.75;;;19.64;95.94
40708;BME280;26392;42.696;23.350;2022-07-29T04:02:19;95438.66;;;19.83;94.46
40708;BME280;26392;42.696;23.350;2022-07-29T04:04:46;95438.28;;;19.98;92.38
40708;BME280;26392;42.696;23.350;2022-07-29T04:07:12;95432.38;;;20.13;91.80
40708;BME280;26392;42.696;23.350;2022-07-29T04:09:38;95440.00;;;20.30;90.40
40708;BME280;26392;42.696;23.350;2022-07-29T04:12:04;95443.56;;;20.45;89.37
40708;BME280;26392;42.696;23.350;2022-07-29T04:14:31;95448.25;;;20.67;88.59
40708;BME280;26392;42.696;23.350;2022-07-29T04:16:57;95439.78;;;20.94;87.62
40708;BME280;26392;42.696;23.350;2022-07-29T04:19:22;95436.84;;;21.71;84.10
40708;BME280;26392;42.696;23.350;2022-07-29T04:21:48;95437.34;;;22.86;79.32
40708;BME280;26392;42.696;23.350;2022-07-29T04:24:13;95430.69;;;24.14;73.07
40708;BME280;26392;42.696;23.350;2022-07-29T04:26:38;95425.19;;;25.14;65.95
40708;BME280;26392;42.696;23.350;2022-07-29T04:29:04;95430.44;;;26.26;62.51
40708;BME280;26392;42.696;23.350;2022-07-29T04:31:29;95427.69;;;26.82;58.24
40708;BME280;26392;42.696;23.350;2022-07-29T04:33:55;95438.00;;;27.38;57.28
40708;BME280;26392;42.696;23.350;2022-07-29T04:36:20;95435.28;;;28.24;54.91
40708;BME280;26392;42.696;23.350;2022-07-29T04:38:46;95439.94;;;28.71;52.94
40708;BME280;26392;42.696;23.350;2022-07-29T04:41:11;95438.59;;;29.04;50.05
40708;BME280;26392;42.696;23.350;2022-07-29T04:43:36;95449.75;;;29.89;48.61
40708;BME280;26392;42.696;23.350;2022-07-29T04:46:03;95454.94;;;30.37;46.55
40708;BME280;26392;42.696;23.350;2022-07-29T04:48:28;95451.31;;;30.96;44.68
40708;BME280;26392;42.696;23.350;2022-07-29T04:50:54;95449.44;;;30.77;45.62
40708;BME280;26392;42.696;23.350;2022-07-29T04:53:20;95449.69;;;30.35;44.99
40708;BME280;26392;42.696;23.350;2022-07-29T04:55:45;95447.47;;;31.12;44.65
40708;BME280;26392;42.696;23.350;2022-07-29T04:58:11;95452.66;;;31.43;43.90
40708;BME280;26392;42.696;23.350;2022-07-29T05:00:37;95458.88;;;32.04;42.87
40708;BME280;26392;42.696;23.350;2022-07-29T05:03:03;95447.50;;;32.49;41.50
40708;BME280;26392;42.696;23.350;2022-07-29T05:05:29;95450.16;;;32.97;40.62
40708;BME280;26392;42.696;23.350;2022-07-29T05:07:54;95452.78;;;31.99;40.85
40708;BME280;26392;42.696;23.350;2022-07-29T05:10:20;95453.72;;;32.17;40.67
40708;BME280;26392;42.696;23.350;2022-07-29T05:12:45;95445.47;;;31.50;41.75
40708;BME280;26392;42.696;23.350;2022-07-29T05:15:11;95445.63;;;30.32;43.82
40708;BME280;26392;42.696;23.350;2022-07-29T05:17:37;95439.91;;;29.76;46.03
40708;BME280;26392;42.696;23.350;2022-07-29T05:20:03;95447.91;;;28.69;49.38
40708;BME280;26392;42.696;23.350;2022-07-29T05:22:28;95453.56;;;28.18;51.70
40708;BME280;26392;42.696;23.350;2022-07-29T05:24:54;95462.19;;;27.46;52.64
40708;BME280;26392;42.696;23.350;2022-07-29T05:27:19;95458.75;;;26.65;54.80
40708;BME280;26392;42.696;23.350;2022-07-29T05:29:45;95450.84;;;25.89;56.77
40708;BME280;26392;42.696;23.350;2022-07-29T05:32:10;95452.06;;;25.43;58.97
40708;BME280;26392;42.696;23.350;2022-07-29T05:34:36;95455.66;;;25.19;60.87
40708;BME280;26392;42.696;23.350;2022-07-29T05:37:01;95448.38;;;25.06;61.59
40708;BME280;26392;42.696;23.350;2022-07-29T05:39:27;95445.22;;;24.95;61.06
40708;BME280;26392;42.696;23.350;2022-07-29T05:41:52;95445.91;;;24.92;61.52
40708;BME280;26392;42.696;23.350;2022-07-29T05:44:18;95455.22;;;24.96;62.02
40708;BME280;26392;42.696;23.350;2022-07-29T05:46:43;95451.75;;;24.99;61.38
40708;BME280;26392;42.696;23.350;2022-07-29T05:49:08;95456.34;;;24.83;61.86
40708;BME280;26392;42.696;23.350;2022-07-29T05:51:34;95462.13;;;24.77;62.06
40708;BME280;26392;42.696;23.350;2022-07-29T05:54:00;95458.94;;;24.67;60.95
40708;BME280;26392;42.696;23.350;2022-07-29T05:56:25;95448.16;;;24.65;61.97
40708;BME280;26392;42.696;23.350;2022-07-29T05:58:51;95457.19;;;24.62;61.91
40708;BME280;26392;42.696;23.350;2022-07-29T06:01:17;95457.31;;;24.66;62.29
40708;BME280;26392;42.696;23.350;2022-07-29T06:03:42;95456.84;;;24.43;62.26
40708;BME280;26392;42.696;23.350;2022-07-29T06:06:08;95457.53;;;24.40;62.54
40708;BME280;26392;42.696;23.350;2022-07-29T06:08:34;95469.50;;;23.89;64.17
40708;BME280;26392;42.696;23.350;2022-07-29T06:11:01;95459.97;;;23.61;66.81
40708;BME280;26392;42.696;23.350;2022-07-29T06:13:27;95465.00;;;23.76;66.65
40708;BME280;26392;42.696;23.350;2022-07-29T06:15:53;95461.09;;;23.98;65.65
40708;BME280;26392;42.696;23.350;2022-07-29T06:18:18;95463.22;;;24.22;64.65
40708;BME280;26392;42.696;23.350;2022-07-29T06:20:46;95462.13;;;24.35;64.30
40708;BME280;26392;42.696;23.350;2022-07-29T06:23:11;95455.03;;;24.47;64.00
40708;BME280;26392;42.696;23.350;2022-07-29T06:25:36;95459.59;;;24.51;64.82
40708;BME280;26392;42.696;23.350;2022-07-29T06:28:03;95452.69;;;24.28;64.33
40708;BME280;26392;42.696;23.350;2022-07-29T06:30:29;95464.09;;;24.35;64.82
40708;BME280;26392;42.696;23.350;2022-07-29T06:32:54;95459.63;;;24.43;64.18
40708;BME280;26392;42.696;23.350;2022-07-29T06:35:20;95456.44;;;24.53;64.25
40708;BME280;26392;42.696;23.350;2022-07-29T06:37:46;95454.25;;;24.59;63.30
40708;BME280;26392;42.696;23.350;2022-07-29T06:40:12;95452.25;;;24.47;64.49
40708;BME280;26392;42.696;23.350;2022-07-29T06:42:56;95444.81;;;24.30;65.51
40708;BME280;26392;42.696;23.350;2022-07-29T06:45:22;95450.78;;;24.41;65.21
40708;BME280;26392;42.696;23.350;2022-07-29T06:47:47;95447.41;;;24.56;64.22
40708;BME280;26392;42.696;23.350;2022-07-29T06:50:15;95443.31;;;24.74;63.71
40708;BME280;26392;42.696;23.350;2022-07-29T06:52:40;95445.59;;;24.93;62.45
40708;BME280;26392;42.696;23.350;2022-07-29T06:55:06;95446.59;;;24.89;61.72
40708;BME280;26392;42.696;23.350;2022-07-29T06:57:32;95452.59;;;24.78;61.23
40708;BME280;26392;42.696;23.350;2022-07-29T06:59:57;95449.19;;;24.94;60.93
40708;BME280;26392;42.696;23.350;2022-07-29T07:02:23;95448.16;;;24.98;60.45
40708;BME280;26392;42.696;23.350;2022-07-29T07:04:49;95445.06;;;25.12;61.53
40708;BME280;26392;42.696;23.350;2022-07-29T07:07:15;95440.44;;;25.29;60.49
40708;BME280;26392;42.696;23.350;2022-07-29T07:09:40;95430.59;;;25.43;59.16
40708;BME280;26392;42.696;23.350;2022-07-29T07:12:06;95442.34;;;25.49;58.74
40708;BME280;26392;42.696;23.350;2022-07-29T07:14:31;95436.50;;;25.54;57.85
40708;BME280;26392;42.696;23.350;2022-07-29T07:16:57;95439.78;;;25.56;56.72
40708;BME280;26392;42.696;23.350;2022-07-29T07:19:25;95441.63;;;25.40;57.09
40708;BME280;26392;42.696;23.350;2022-07-29T07:21:52;95445.31;;;25.32;56.83
40708;BME280;26392;42.696;23.350;2022-07-29T07:24:18;95440.69;;;25.36;57.46
40708;BME280;26392;42.696;23.350;2022-07-29T07:26:44;95443.72;;;25.43;57.44
40708;BME280;26392;42.696;23.350;2022-07-29T07:29:10;95438.38;;;25.50;56.52
40708;BME280;26392;42.696;23.350;2022-07-29T07:31:36;95431.41;;;25.56;57.43
40708;BME280;26392;42.696;23.350;2022-07-29T07:34:01;95428.25;;;25.70;56.67
40708;BME280;26392;42.696;23.350;2022-07-29T07:36:27;95429.22;;;25.86;57.15
40708;BME280;26392;42.696;23.350;2022-07-29T07:38:52;95438.97;;;25.93;56.78
40708;BME280;26392;42.696;23.350;2022-07-29T07:41:18;95424.69;;;25.94;56.00
40708;BME280;26392;42.696;23.350;2022-07-29T07:43:43;95432.00;;;25.86;56.54
40708;BME280;26392;42.696;23.350;2022-07-29T07:46:09;95422.81;;;25.98;56.02
40708;BME280;26392;42.696;23.350;2022-07-29T07:48:34;95417.22;;;26.10;56.19
40708;BME280;26392;42.696;23.350;2022-07-29T07:51:00;95427.63;;;26.26;55.58
40708;BME280;26392;42.696;23.350;2022-07-29T07:53:26;95437.63;;;26.39;54.88
40708;BME280;26392;42.696;23.350;2022-07-29T07:55:52;95433.19;;;26.50;54.52
40708;BME280;26392;42.696;23.350;2022-07-29T07:58:18;95440.84;;;26.53;53.24
40708;BME280;26392;42.696;23.350;2022-07-29T08:00:43;95427.06;;;26.61;53.75
40708;BME280;26392;42.696;23.350;2022-07-29T08:03:09;95435.16;;;26.78;54.26
40708;BME280;26392;42.696;23.350;2022-07-29T08:05:37;95427.94;;;26.77;53.16
40708;BME280;26392;42.696;23.350;2022-07-29T08:08:03;95425.81;;;26.86;53.06
40708;BME280;26392;42.696;23.350;2022-07-29T08:10:29;95416.00;;;26.92;53.82
40708;BME280;26392;42.696;23.350;2022-07-29T08:13:12;95431.53;;;27.06;52.53
40708;BME280;26392;42.696;23.350;2022-07-29T08:15:39;95430.75;;;27.21;52.43
40708;BME280;26392;42.696;23.350;2022-07-29T08:18:05;95422.19;;;27.30;51.21
40708;BME280;26392;42.696;23.350;2022-07-29T08:20:30;95428.34;;;27.35;49.87
40708;BME280;26392;42.696;23.350;2022-07-29T08:22:58;95429.50;;;27.34;49.99
40708;BME280;26392;42.696;23.350;2022-07-29T08:25:24;95424.81;;;27.38;49.50
40708;BME280;26392;42.696;23.350;2022-07-29T08:27:49;95419.13;;;27.35;48.89
40708;BME280;26392;42.696;23.350;2022-07-29T08:30:15;95418.88;;;27.40;49.18
40708;BME280;26392;42.696;23.350;2022-07-29T08:32:40;95422.56;;;27.44;48.58
40708;BME280;26392;42.696;23.350;2022-07-29T08:35:06;95415.88;;;27.49;48.11
40708;BME280;26392;42.696;23.350;2022-07-29T08:37:31;95408.13;;;27.58;49.28
40708;BME280;26392;42.696;23.350;2022-07-29T08:39:57;95410.00;;;27.70;48.36
40708;BME280;26392;42.696;23.350;2022-07-29T08:42:22;95414.72;;;27.81;48.57
40708;BME280;26392;42.696;23.350;2022-07-29T08:44:48;95393.59;;;27.52;49.03
40708;BME280;26392;42.696;23.350;2022-07-29T08:47:14;95415.53;;;27.34;48.60
40708;BME280;26392;42.696;23.350;2022-07-29T08:49:39;95397.50;;;27.48;48.69
40708;BME280;26392;42.696;23.350;2022-07-29T08:52:05;95407.38;;;27.61;47.89
40708;BME280;26392;42.696;23.350;2022-07-29T08:54:33;95396.00;;;27.70;47.67
40708;BME280;26392;42.696;23.350;2022-07-29T08:56:59;95408.41;;;27.84;47.69
40708;BME280;26392;42.696;23.350;2022-07-29T08:59:27;95404.00;;;28.03;46.69
40708;BME280;26392;42.696;23.350;2022-07-29T09:01:53;95399.16;;;28.19;46.40
40708;BME280;26392;42.696;23.350;2022-07-29T09:04:20;95407.78;;;28.10;45.96
40708;BME280;26392;42.696;23.350;2022-07-29T09:06:47;95401.50;;;28.17;46.96
40708;BME280;26392;42.696;23.350;2022-07-29T09:09:14;95389.59;;;28.40;46.01
40708;BME280;26392;42.696;23.350;2022-07-29T09:11:41;95390.38;;;28.56;46.20
40708;BME280;26392;42.696;23.350;2022-07-29T09:14:07;95388.44;;;28.80;44.35
40708;BME280;26392;42.696;23.350;2022-07-29T09:16:55;95392.28;;;28.91;42.13
40708;BME280;26392;42.696;23.350;2022-07-29T09:19:30;95391.44;;;29.10;42.37
40708;BME280;26392;42.696;23.350;2022-07-29T09:21:58;95392.31;;;29.14;41.90
40708;BME280;26392;42.696;23.350;2022-07-29T09:29:36;95392.81;;;29.19;41.75
40708;BME280;26392;42.696;23.350;2022-07-29T09:32:06;95388.81;;;29.20;41.66
40708;BME280;26392;42.696;23.350;2022-07-29T09:34:33;95387.75;;;29.29;41.00
40708;BME280;26392;42.696;23.350;2022-07-29T09:36:59;95381.47;;;29.35;40.99
40708;BME280;26392;42.696;23.350;2022-07-29T09:39:32;95382.13;;;29.52;42.21
40708;BME280;26392;42.696;23.350;2022-07-29T09:42:01;95387.81;;;29.55;41.63
40708;BME280;26392;42.696;23.350;2022-07-29T09:44:27;95382.88;;;29.49;41.25
40708;BME280;26392;42.696;23.350;2022-07-29T09:47:05;95382.56;;;29.54;41.06
40708;BME280;26392;42.696;23.350;2022-07-29T09:49:34;95374.28;;;29.61;41.34
40708;BME280;26392;42.696;23.350;2022-07-29T09:52:08;95374.53;;;29.52;41.53
40708;BME280;26392;42.696;23.350;2022-07-29T09:54:34;95378.66;;;29.58;42.10
40708;BME280;26392;42.696;23.350;2022-07-29T09:57:21;95377.00;;;29.57;41.49
40708;BME280;26392;42.696;23.350;2022-07-29T10:02:22;95356.47;;;29.50;41.09
40708;BME280;26392;42.696;23.350;2022-07-29T10:04:52;95355.06;;;29.63;40.12
40708;BME280;26392;42.696;23.350;2022-07-29T10:07:17;95359.69;;;29.75;39.33
40708;BME280;26392;42.696;23.350;2022-07-29T10:09:52;95352.66;;;29.88;39.27
40708;BME280;26392;42.696;23.350;2022-07-29T10:12:19;95350.72;;;29.92;38.80
40708;BME280;26392;42.696;23.350;2022-07-29T10:14:46;95346.38;;;29.98;38.99
40708;BME280;26392;42.696;23.350;2022-07-29T10:17:11;95338.00;;;30.02;38.94
40708;BME280;26392;42.696;23.350;2022-07-29T10:19:38;95330.63;;;29.90;38.55
40708;BME280;26392;42.696;23.350;2022-07-29T10:22:08;95335.94;;;29.99;38.58
40708;BME280;26392;42.696;23.350;2022-07-29T10:24:35;95338.09;;;30.09;39.52
40708;BME280;26392;42.696;23.350;2022-07-29T10:27:04;95327.53;;;30.25;38.71
40708;BME280;26392;42.696;23.350;2022-07-29T10:29:29;95332.50;;;30.39;38.07
40708;BME280;26392;42.696;23.350;2022-07-29T10:37:22;95325.03;;;30.50;39.84
40708;BME280;26392;42.696;23.350;2022-07-29T10:40:17;95310.69;;;30.63;37.78
40708;BME280;26392;42.696;23.350;2022-07-29T10:43:14;95305.66;;;30.79;36.87
40708;BME280;26392;42.696;23.350;2022-07-29T10:45:43;95318.03;;;30.74;36.67
40708;BME280;26392;42.696;23.350;2022-07-29T10:48:09;95314.44;;;30.74;36.88
40708;BME280;26392;42.696;23.350;2022-07-29T10:50:54;95312.91;;;30.80;37.50
40708;BME280;26392;42.696;23.350;2022-07-29T10:53:21;95306.59;;;30.90;37.48
40708;BME280;26392;42.696;23.350;2022-07-29T10:55:47;95305.84;;;30.97;36.25
40708;BME280;26392;42.696;23.350;2022-07-29T10:58:22;95302.75;;;31.09;36.73
40708;BME280;26392;42.696;23.350;2022-07-29T11:00:52;95294.00;;;31.18;36.62
40708;BME280;26392;42.696;23.350;2022-07-29T11:06:07;95292.19;;;30.99;36.65
40708;BME280;26392;42.696;23.350;2022-07-29T11:08:33;95285.81;;;31.06;36.68
40708;BME280;26392;42.696;23.350;2022-07-29T11:13:50;95280.38;;;31.24;37.77
40708;BME280;26392;42.696;23.350;2022-07-29T11:16:18;95275.59;;;31.31;36.97
40708;BME280;26392;42.696;23.350;2022-07-29T11:21:42;95275.34;;;31.51;35.60
40708;BME280;26392;42.696;23.350;2022-07-29T11:24:12;95271.44;;;31.66;36.20
40708;BME280;26392;42.696;23.350;2022-07-29T11:26:38;95273.03;;;31.63;35.99
40708;BME280;26392;42.696;23.350;2022-07-29T11:29:19;95271.34;;;31.52;35.92
40708;BME280;26392;42.696;23.350;2022-07-29T11:31:49;95274.09;;;31.41;36.20
40708;BME280;26392;42.696;23.350;2022-07-29T11:39:33;95276.13;;;31.48;36.12
40708;BME280;26392;42.696;23.350;2022-07-29T11:47:58;95252.47;;;31.56;36.69
40708;BME280;26392;42.696;23.350;2022-07-29T11:50:33;95253.78;;;31.73;36.46
40708;BME280;26392;42.696;23.350;2022-07-29T11:52:59;95246.22;;;31.87;35.41
40708;BME280;26392;42.696;23.350;2022-07-29T11:55:25;95245.91;;;32.03;36.11
40708;BME280;26392;42.696;23.350;2022-07-29T11:57:52;95253.63;;;32.14;35.43
40708;BME280;26392;42.696;23.350;2022-07-29T12:00:45;95244.38;;;32.20;35.11
40708;BME280;26392;42.696;23.350;2022-07-29T12:03:12;95239.16;;;32.26;34.09
40708;BME280;26392;42.696;23.350;2022-07-29T12:05:48;95242.78;;;32.26;34.18
40708;BME280;26392;42.696;23.350;2022-07-29T12:08:21;95248.34;;;32.08;34.20
40708;BME280;26392;42.696;23.350;2022-07-29T12:10:48;95254.41;;;32.07;34.13
40708;BME280;26392;42.696;23.350;2022-07-29T12:13:16;95237.44;;;32.00;33.92
40708;BME280;26392;42.696;23.350;2022-07-29T12:15:42;95237.34;;;31.85;33.73
40708;BME280;26392;42.696;23.350;2022-07-29T12:18:19;95239.72;;;31.76;34.33
40708;BME280;26392;42.696;23.350;2022-07-29T12:20:46;95229.28;;;31.84;35.02
40708;BME280;26392;42.696;23.350;2022-07-29T12:23:12;95232.19;;;31.98;34.72
40708;BME280;26392;42.696;23.350;2022-07-29T12:25:40;95236.56;;;31.85;34.60
40708;BME280;26392;42.696;23.350;2022-07-29T12:28:08;95237.75;;;31.84;35.26
40708;BME280;26392;42.696;23.350;2022-07-29T12:30:42;95232.66;;;32.11;34.45
40708;BME280;26392;42.696;23.350;2022-07-29T12:33:27;95228.25;;;32.10;33.78
40708;BME280;26392;42.696;23.350;2022-07-29T12:35:58;95229.00;;;32.03;33.85
40708;BME280;26392;42.696;23.350;2022-07-29T12:38:24;95219.00;;;32.17;35.15
40708;BME280;26392;42.696;23.350;2022-07-29T12:40:52;95216.59;;;32.26;33.98
40708;BME280;26392;42.696;23.350;2022-07-29T12:43:22;95218.28;;;32.41;34.81
40708;BME280;26392;42.696;23.350;2022-07-29T12:45:50;95222.34;;;32.51;33.64
40708;BME280;26392;42.696;23.350;2022-07-29T12:48:17;95216.72;;;32.51;32.97
40708;BME280;26392;42.696;23.350;2022-07-29T12:50:57;95215.53;;;32.52;32.84
40708;BME280;26392;42.696;23.350;2022-07-29T12:53:23;95214.31;;;32.53;33.89
40708;BME280;26392;42.696;23.350;2022-07-29T12:55:50;95207.06;;;32.59;33.34
40708;BME280;26392;42.696;23.350;2022-07-29T13:01:09;95191.38;;;32.72;32.80
40708;BME280;26392;42.696;23.350;2022-07-29T13:03:49;95193.78;;;32.85;32.99
40708;BME280;26392;42.696;23.350;2022-07-29T13:06:41;95187.75;;;32.90;32.78
40708;BME280;26392;42.696;23.350;2022-07-29T13:09:18;95186.19;;;33.00;33.10
40708;BME280;26392;42.696;23.350;2022-07-29T13:11:52;95188.16;;;33.10;32.78
40708;BME280;26392;42.696;23.350;2022-07-29T13:17:05;95184.56;;;33.16;31.96
40708;BME280;26392;42.696;23.350;2022-07-29T13:19:34;95184.13;;;33.18;32.60
40708;BME280;26392;42.696;23.350;2022-07-29T13:22:00;95171.22;;;33.28;32.33
40708;BME280;26392;42.696;23.350;2022-07-29T13:24:25;95180.47;;;33.32;32.38
40708;BME280;26392;42.696;23.350;2022-07-29T13:26:50;95182.09;;;33.33;32.41
40708;BME280;26392;42.696;23.350;2022-07-29T13:29:17;95172.00;;;33.35;32.22
40708;BME280;26392;42.696;23.350;2022-07-29T13:31:43;95180.88;;;33.34;32.01
40708;BME280;26392;42.696;23.350;2022-07-29T13:34:08;95182.94;;;33.19;32.07
40708;BME280;26392;42.696;23.350;2022-07-29T13:36:34;95163.56;;;33.17;32.72
40708;BME280;26392;42.696;23.350;2022-07-29T13:38:59;95174.03;;;33.13;33.09
40708;BME280;26392;42.696;23.350;2022-07-29T13:41:27;95168.41;;;33.17;33.23